| time (UTC) | temp C | wind direction | speed KPH | gust KPH | rain 1hr cm | rain 24hr cm | rain mn cm | humidity % | barometer mb |
| 20260507085551 | 10 | 282 | 0.0 | 3.2 | 0.00 | 0.56 | 0.08 | 78 | 1008.9 |
| 20260507084443 | 10 | 282 | 1.6 | 4.8 | 0.03 | 0.56 | 0.08 | 78 | 1008.7 |
| 20260507083444 | 10 | 261 | 3.2 | 8.0 | 0.03 | 0.56 | 0.08 | 78 | 1008.9 |
| 20260507082444 | 10 | 305 | 1.6 | 4.8 | 0.03 | 0.56 | 0.08 | 78 | 1008.5 |
| 20260507081444 | 10 | 276 | 1.6 | 3.2 | 0.03 | 0.56 | 0.08 | 79 | 1008.6 |
| 20260507080553 | 10 | 273 | 0.0 | 3.2 | 0.03 | 0.56 | 0.08 | 79 | 1008.4 |
| 20260507075443 | 10 | 281 | 0.0 | 4.8 | 0.03 | 0.56 | 0.08 | 79 | 1008.8 |
| 20260507074441 | 10 | 289 | 1.6 | 3.2 | 0.00 | 0.53 | 0.05 | 79 | 1008.7 |
| 20260507073441 | 10 | 289 | 0.0 | 1.6 | 0.00 | 0.53 | 0.05 | 79 | 1008.9 |
| 20260507072441 | 10 | 289 | 0.0 | 1.6 | 0.00 | 0.53 | 0.05 | 80 | 1008.3 |
| 20260507071536 | 10 | 289 | 0.0 | 1.6 | 0.00 | 0.53 | 0.05 | 80 | 1007.9 |
| 20260507070441 | 10 | 288 | 0.0 | 3.2 | 0.00 | 0.53 | 0.05 | 80 | 1008.0 |
| 20260507065442 | 10 | 289 | 1.6 | 4.8 | 0.00 | 0.53 | 0.05 | 80 | 1007.8 |
| 20260507064437 | 10 | 285 | 1.6 | 4.8 | 0.00 | 0.53 | 0.05 | 81 | 1007.9 |
| 20260507063437 | 11 | 274 | 0.0 | 4.8 | 0.00 | 0.53 | 0.05 | 81 | 1007.8 |
| 20260507062439 | 11 | 294 | 1.6 | 6.4 | 0.00 | 0.53 | 0.05 | 82 | 1007.9 |
| 20260507061503 | 11 | 299 | 3.2 | 6.4 | 0.00 | 0.53 | 0.05 | 82 | 1007.8 |
| 20260507060434 | 11 | 298 | 3.2 | 8.0 | 0.00 | 0.53 | 0.05 | 82 | 1007.9 |
| 20260507055449 | 11 | 311 | 3.2 | 8.0 | 0.00 | 0.53 | 0.05 | 82 | 1007.9 |
| 20260507054434 | 11 | 297 | 1.6 | 6.4 | 0.00 | 0.53 | 0.05 | 83 | 1008.2 |
| 20260507053430 | 12 | 288 | 1.6 | 3.2 | 0.00 | 0.53 | 0.05 | 83 | 1008.3 |
| 20260507052432 | 12 | 288 | 3.2 | 8.0 | 0.00 | 0.53 | 0.05 | 83 | 1008.2 |
| 20260507051429 | 12 | 337 | 3.2 | 4.8 | 0.03 | 0.53 | 0.05 | 83 | 1008.3 |
| 20260507050430 | 12 | 299 | 3.2 | 8.0 | 0.03 | 0.53 | 0.05 | 83 | 1008.2 |
| 20260507045429 | 12 | 296 | 3.2 | 6.4 | 0.08 | 0.53 | 0.05 | 83 | 1008.2 |
| 20260507044430 | 13 | 297 | 3.2 | 8.0 | 0.08 | 0.53 | 0.05 | 83 | 1008.2 |
| 20260507043429 | 13 | 301 | 3.2 | 9.7 | 0.08 | 0.53 | 0.05 | 83 | 1007.9 |
| 20260507042434 | 13 | 308 | 3.2 | 6.4 | 0.08 | 0.53 | 0.05 | 84 | 1007.9 |
| 20260507041428 | 13 | 259 | 3.2 | 8.0 | 0.05 | 0.51 | 0.03 | 84 | 1008.1 |
| 20260507040429 | 13 | 277 | 4.8 | 11.3 | 0.05 | 0.51 | 0.03 | 84 | 1008.3 |
| 20260507035428 | 13 | 265 | 4.8 | 12.9 | 0.00 | 0.46 | 0.46 | 84 | 1007.9 |
| 20260507034428 | 14 | 257 | 3.2 | 6.4 | 0.00 | 0.46 | 0.46 | 84 | 1007.7 |
| 20260507033428 | 15 | 263 | 4.8 | 11.3 | 0.00 | 0.46 | 0.46 | 84 | 1007.7 |
| 20260507032428 | 15 | 253 | 3.2 | 11.3 | 0.00 | 0.46 | 0.46 | 85 | 1007.4 |
| 20260507031428 | 15 | 201 | 1.6 | 8.0 | 0.00 | 0.46 | 0.46 | 84 | 1007.1 |
| 20260507030427 | 15 | 276 | 3.2 | 12.9 | 0.00 | 0.46 | 0.46 | 84 | 1007.1 |
| 20260507025426 | 15 | 206 | 4.8 | 17.7 | 0.00 | 0.46 | 0.46 | 84 | 1006.9 |
| 20260507024427 | 15 | 195 | 4.8 | 16.1 | 0.00 | 0.46 | 0.46 | 84 | 1007.0 |
| 20260507023426 | 15 | 224 | 6.4 | 12.9 | 0.00 | 0.46 | 0.46 | 84 | 1006.9 |
| 20260507022424 | 15 | 200 | 8.0 | 16.1 | 0.00 | 0.46 | 0.46 | 84 | 1007.1 |
| 20260507021421 | 15 | 184 | 4.8 | 12.9 | 0.00 | 0.46 | 0.46 | 84 | 1006.7 |
| 20260507020423 | 15 | 220 | 3.2 | 8.0 | 0.00 | 0.46 | 0.46 | 84 | 1006.9 |
| 20260507015422 | 15 | 161 | 6.4 | 12.9 | 0.00 | 0.46 | 0.46 | 84 | 1006.9 |
| 20260507014423 | 15 | 179 | 6.4 | 12.9 | 0.00 | 0.46 | 0.46 | 84 | 1007.1 |
| 20260507013422 | 15 | 188 | 4.8 | 11.3 | 0.00 | 0.46 | 0.46 | 84 | 1007.0 |
| 20260507012422 | 15 | 182 | 6.4 | 16.1 | 0.00 | 0.46 | 0.46 | 83 | 1007.1 |
| 20260507011421 | 15 | 174 | 6.4 | 12.9 | 0.00 | 0.46 | 0.46 | 83 | 1007.0 |
| 20260507010421 | 15 | 184 | 6.4 | 17.7 | 0.00 | 0.46 | 0.46 | 83 | 1007.1 |
| 20260507005419 | 15 | 189 | 4.8 | 11.3 | 0.00 | 0.46 | 0.46 | 83 | 1007.1 |
| 20260507004421 | 15 | 204 | 8.0 | 14.5 | 0.00 | 0.46 | 0.46 | 83 | 1007.0 |
| 20260507003417 | 15 | 205 | 4.8 | 12.9 | 0.00 | 0.46 | 0.46 | 82 | 1006.9 |
| 20260507002417 | 15 | 182 | 4.8 | 12.9 | 0.00 | 0.46 | 0.46 | 82 | 1006.9 |
| 20260507001418 | 15 | 191 | 6.4 | 12.9 | 0.03 | 0.46 | 0.46 | 82 | 1006.9 |
| 20260507000541 | 15 | 199 | 6.4 | 16.1 | 0.10 | 0.46 | 0.46 | 82 | 1006.8 |
| 20260506235539 | 15 | 168 | 6.4 | 19.3 | 0.15 | 0.46 | 0.46 | 81 | 1006.7 |
| 20260506234415 | 15 | 177 | 6.4 | 12.9 | 0.18 | 0.46 | 0.46 | 81 | 1006.8 |
| 20260506233415 | 15 | 175 | 6.4 | 12.9 | 0.20 | 0.46 | 0.46 | 81 | 1006.7 |
| 20260506232415 | 15 | 195 | 6.4 | 17.7 | 0.23 | 0.46 | 0.46 | 80 | 1006.8 |
| 20260506231416 | 15 | 159 | 8.0 | 14.5 | 0.20 | 0.43 | 0.43 | 80 | 1006.8 |
| 20260506230417 | 15 | 130 | 6.4 | 17.7 | 0.13 | 0.36 | 0.33 | 80 | 1007.0 |
| 20260506225416 | 15 | 163 | 6.4 | 14.5 | 0.08 | 0.30 | 0.30 | 79 | 1007.0 |
| 20260506224415 | 15 | 229 | 8.0 | 22.5 | 0.08 | 0.28 | 0.28 | 79 | 1007.0 |
| 20260506223415 | 15 | 253 | 6.4 | 12.9 | 0.05 | 0.25 | 0.25 | 79 | 1007.1 |
| 20260506222416 | 15 | 156 | 8.0 | 16.1 | 0.03 | 0.23 | 0.23 | 78 | 1007.1 |
| 20260506221409 | 15 | 185 | 8.0 | 17.7 | 0.05 | 0.23 | 0.23 | 78 | 1007.2 |
| 20260506220409 | 16 | 186 | 8.0 | 20.9 | 0.05 | 0.23 | 0.23 | 78 | 1007.3 |
| 20260506215410 | 16 | 182 | 6.4 | 14.5 | 0.08 | 0.23 | 0.23 | 77 | 1007.5 |
| 20260506214409 | 16 | 166 | 6.4 | 17.7 | 0.05 | 0.20 | 0.20 | 77 | 1007.4 |
| 20260506213410 | 16 | 160 | 8.0 | 16.1 | 0.08 | 0.20 | 0.20 | 77 | 1007.5 |
| 20260506212411 | 16 | 168 | 6.4 | 14.5 | 0.10 | 0.20 | 0.20 | 76 | 1007.7 |
| 20260506211410 | 16 | 193 | 8.0 | 14.5 | 0.10 | 0.18 | 0.18 | 76 | 1007.9 |
| 20260506210409 | 16 | 183 | 6.4 | 16.1 | 0.13 | 0.18 | 0.18 | 75 | 1007.9 |
| 20260506205408 | 16 | 195 | 8.0 | 19.3 | 0.10 | 0.15 | 0.15 | 75 | 1007.9 |
| 20260506204410 | 16 | 203 | 6.4 | 12.9 | 0.10 | 0.15 | 0.15 | 74 | 1008.2 |
| 20260506203410 | 16 | 218 | 6.4 | 12.9 | 0.10 | 0.13 | 0.13 | 73 | 1008.1 |
| 20260506202409 | 16 | 224 | 8.0 | 22.5 | 0.08 | 0.10 | 0.10 | 72 | 1008.1 |
| 20260506201409 | 17 | 201 | 11.3 | 25.7 | 0.08 | 0.08 | 0.08 | 71 | 1007.9 |
| 20260506200408 | 17 | 154 | 8.0 | 27.4 | 0.05 | 0.05 | 0.05 | 70 | 1007.9 |
| 20260506195409 | 17 | 186 | 9.7 | 24.1 | 0.05 | 0.05 | 0.05 | 69 | 1008.1 |
| 20260506194408 | 18 | 214 | 8.0 | 17.7 | 0.05 | 0.05 | 0.05 | 68 | 1008.0 |
| 20260506193410 | 18 | 263 | 6.4 | 14.5 | 0.03 | 0.03 | 0.03 | 66 | 1008.0 |
| 20260506192409 | 18 | 194 | 8.0 | 17.7 | 0.03 | 0.03 | 0.03 | 65 | 1007.9 |
| 20260506191408 | 19 | 205 | 9.7 | 19.3 | 0.00 | 0.00 | 0.00 | 62 | 1007.9 |
| 20260506190409 | 20 | 201 | 8.0 | 17.7 | 0.00 | 0.00 | 0.00 | 60 | 1007.9 |
| 20260506185409 | 20 | 266 | 11.3 | 32.2 | 0.00 | 0.00 | 0.00 | 57 | 1008.0 |
| 20260506184411 | 21 | 244 | 14.5 | 38.6 | 0.00 | 0.00 | 0.00 | 55 | 1008.2 |
| 20260506183407 | 21 | 189 | 19.3 | 38.6 | 0.00 | 0.00 | 0.00 | 54 | 1008.1 |
| 20260506182406 | 22 | 174 | 16.1 | 35.4 | 0.00 | 0.00 | 0.00 | 51 | 1008.0 |
| 20260506181404 | 22 | 188 | 14.5 | 37.0 | 0.00 | 0.00 | 0.00 | 48 | 1008.0 |
| 20260506180403 | 22 | 222 | 12.9 | 37.0 | 0.00 | 0.00 | 0.00 | 48 | 1008.1 |
| 20260506175402 | 22 | 175 | 12.9 | 40.2 | 0.00 | 0.00 | 0.00 | 47 | 1008.2 |
| 20260506174403 | 22 | 195 | 12.9 | 30.6 | 0.00 | 0.00 | 0.00 | 47 | 1008.3 |
| 20260506173403 | 22 | 230 | 11.3 | 29.0 | 0.00 | 0.00 | 0.00 | 48 | 1008.3 |
| 20260506172405 | 22 | 134 | 14.5 | 40.2 | 0.00 | 0.00 | 0.00 | 47 | 1008.3 |
| 20260506171405 | 22 | 209 | 12.9 | 33.8 | 0.00 | 0.00 | 0.00 | 48 | 1008.3 |
| 20260506170403 | 22 | 167 | 14.5 | 33.8 | 0.00 | 0.00 | 0.00 | 49 | 1008.4 |
| 20260506165403 | 22 | 180 | 11.3 | 25.7 | 0.00 | 0.00 | 0.00 | 49 | 1008.5 |
| 20260506164402 | 22 | 164 | 12.9 | 27.4 | 0.00 | 0.00 | 0.00 | 50 | 1008.7 |
| 20260506163403 | 22 | 190 | 12.9 | 32.2 | 0.00 | 0.00 | 0.00 | 50 | 1008.8 |
| 20260506162407 | 22 | 158 | 11.3 | 29.0 | 0.00 | 0.00 | 0.00 | 50 | 1008.8 |
| 20260506161402 | 22 | 219 | 12.9 | 29.0 | 0.00 | 0.00 | 0.00 | 49 | 1009.1 |
| 20260506160447 | 22 | 218 | 12.9 | 25.7 | 0.00 | 0.00 | 0.00 | 50 | 1009.4 |
| 20260506155401 | 22 | 210 | 14.5 | 29.0 | 0.00 | 0.00 | 0.00 | 50 | 1009.6 |
| 20260506154435 | 22 | 182 | 12.9 | 33.8 | 0.00 | 0.00 | 0.00 | 50 | 1009.7 |
| 20260506153401 | 22 | 213 | 11.3 | 24.1 | 0.00 | 0.00 | 0.00 | 51 | 1010.0 |
| 20260506152401 | 22 | 253 | 12.9 | 29.0 | 0.00 | 0.00 | 0.00 | 51 | 1009.9 |
| 20260506151401 | 22 | 218 | 8.0 | 20.9 | 0.00 | 0.00 | 0.00 | 52 | 1010.2 |
| 20260506145617 | 21 | 176 | 11.3 | 24.1 | 0.00 | 0.00 | 0.00 | 53 | 1010.4 |
| 20260506144610 | 21 | 149 | 11.3 | 24.1 | 0.00 | 0.00 | 0.00 | 54 | 1010.3 |
| 20260506143401 | 21 | 181 | 11.3 | 24.1 | 0.00 | 0.00 | 0.00 | 55 | 1010.2 |
| 20260506142401 | 21 | 181 | 11.3 | 32.2 | 0.00 | 0.00 | 0.00 | 55 | 1010.2 |
| 20260506141400 | 21 | 170 | 9.7 | 17.7 | 0.00 | 0.00 | 0.00 | 56 | 1009.9 |
| 20260506140401 | 20 | 170 | 11.3 | 24.1 | 0.00 | 0.00 | 0.00 | 58 | 1010.1 |
| 20260506135402 | 20 | 174 | 6.4 | 22.5 | 0.00 | 0.00 | 0.00 | 59 | 1010.1 |
| 20260506134406 | 20 | 145 | 6.4 | 19.3 | 0.00 | 0.00 | 0.00 | 60 | 1010.3 |
| 20260506133402 | 19 | 193 | 8.0 | 24.1 | 0.00 | 0.00 | 0.00 | 60 | 1010.5 |
| 20260506132401 | 18 | 186 | 9.7 | 19.3 | 0.00 | 0.00 | 0.00 | 61 | 1010.6 |
| 20260506131401 | 18 | 193 | 9.7 | 19.3 | 0.00 | 0.00 | 0.00 | 61 | 1010.6 |
| 20260506130401 | 18 | 171 | 8.0 | 20.9 | 0.00 | 0.00 | 0.00 | 61 | 1010.6 |
| 20260506125404 | 18 | 199 | 9.7 | 22.5 | 0.00 | 0.00 | 0.00 | 61 | 1010.6 |
| 20260506124402 | 18 | 220 | 11.3 | 29.0 | 0.00 | 0.00 | 0.00 | 61 | 1010.6 |
| 20260506123401 | 18 | 238 | 12.9 | 29.0 | 0.00 | 0.00 | 0.00 | 62 | 1010.6 |
| 20260506122403 | 18 | 142 | 9.7 | 22.5 | 0.00 | 0.00 | 0.00 | 62 | 1010.8 |
| 20260506121401 | 18 | 186 | 9.7 | 24.1 | 0.00 | 0.00 | 0.00 | 62 | 1010.7 |
| 20260506120401 | 17 | 211 | 9.7 | 20.9 | 0.00 | 0.00 | 0.00 | 63 | 1010.4 |
| 20260506115402 | 17 | 204 | 11.3 | 22.5 | 0.00 | 0.00 | 0.00 | 64 | 1010.8 |
| 20260506114401 | 17 | 167 | 9.7 | 24.1 | 0.00 | 0.00 | 0.00 | 64 | 1010.8 |
| 20260506113401 | 17 | 159 | 9.7 | 19.3 | 0.00 | 0.00 | 0.00 | 64 | 1010.8 |
| 20260506112400 | 17 | 186 | 9.7 | 29.0 | 0.00 | 0.00 | 0.00 | 64 | 1011.2 |
| 20260506111358 | 17 | 166 | 9.7 | 24.1 | 0.00 | 0.00 | 0.00 | 65 | 1010.9 |
| 20260506110358 | 16 | 177 | 8.0 | 20.9 | 0.00 | 0.00 | 0.00 | 65 | 1010.8 |
| 20260506105401 | 16 | 257 | 8.0 | 19.3 | 0.00 | 0.00 | 0.00 | 66 | 1011.0 |
| 20260506104358 | 16 | 228 | 8.0 | 19.3 | 0.00 | 0.00 | 0.00 | 66 | 1011.1 |
| 20260506103359 | 16 | 211 | 4.8 | 14.5 | 0.00 | 0.00 | 0.00 | 66 | 1011.0 |
| 20260506102357 | 16 | 172 | 6.4 | 14.5 | 0.00 | 0.00 | 0.00 | 65 | 1010.9 |
| 20260506101358 | 16 | 224 | 6.4 | 14.5 | 0.00 | 0.00 | 0.00 | 65 | 1010.9 |
| 20260506100534 | 16 | 140 | 6.4 | 16.1 | 0.00 | 0.00 | 0.00 | 65 | 1010.8 |
| 20260506095359 | 16 | 196 | 6.4 | 14.5 | 0.00 | 0.00 | 0.00 | 65 | 1011.0 |
| 20260506094353 | 16 | 161 | 4.8 | 11.3 | 0.00 | 0.00 | 0.00 | 64 | 1010.8 |
| 20260506093353 | 16 | 149 | 6.4 | 12.9 | 0.00 | 0.00 | 0.00 | 64 | 1010.9 |
| 20260506092533 | 16 | 180 | 8.0 | 17.7 | 0.00 | 0.00 | 0.00 | 64 | 1010.9 |
| 20260506091350 | 16 | 182 | 6.4 | 14.5 | 0.00 | 0.00 | 0.00 | 63 | 1010.8 |
| 20260506090349 | 16 | 197 | 6.4 | 16.1 | 0.00 | 0.00 | 0.00 | 63 | 1010.8 |